sensor_id;sensor_type;location;lat;lon;timestamp;P1;durP1;ratioP1;P2;durP2;ratioP2
53151;SDS011;39234;53.158;6.322;2023-05-10T00:02:09;15.90;;;13.00;;
53151;SDS011;39234;53.158;6.322;2023-05-10T00:04:35;14.10;;;11.63;;
53151;SDS011;39234;53.158;6.322;2023-05-10T00:07:01;16.58;;;11.82;;
53151;SDS011;39234;53.158;6.322;2023-05-10T00:09:26;15.65;;;11.88;;
53151;SDS011;39234;53.158;6.322;2023-05-10T00:11:52;17.80;;;12.48;;
53151;SDS011;39234;53.158;6.322;2023-05-10T00:14:18;17.15;;;12.43;;
53151;SDS011;39234;53.158;6.322;2023-05-10T00:16:44;14.13;;;11.90;;
53151;SDS011;39234;53.158;6.322;2023-05-10T00:19:10;14.48;;;10.98;;
53151;SDS011;39234;53.158;6.322;2023-05-10T00:21:36;14.95;;;11.15;;
53151;SDS011;39234;53.158;6.322;2023-05-10T00:24:01;12.43;;;10.80;;
53151;SDS011;39234;53.158;6.322;2023-05-10T00:26:27;11.45;;;9.82;;
53151;SDS011;39234;53.158;6.322;2023-05-10T00:28:53;12.38;;;10.18;;
53151;SDS011;39234;53.158;6.322;2023-05-10T00:31:19;11.55;;;9.05;;
53151;SDS011;39234;53.158;6.322;2023-05-10T00:33:44;12.80;;;10.35;;
53151;SDS011;39234;53.158;6.322;2023-05-10T00:36:10;12.25;;;10.38;;
53151;SDS011;39234;53.158;6.322;2023-05-10T00:38:36;14.95;;;11.88;;
53151;SDS011;39234;53.158;6.322;2023-05-10T00:41:02;17.45;;;12.88;;
53151;SDS011;39234;53.158;6.322;2023-05-10T00:43:28;18.67;;;14.00;;
53151;SDS011;39234;53.158;6.322;2023-05-10T00:45:53;17.85;;;12.90;;
53151;SDS011;39234;53.158;6.322;2023-05-10T00:48:19;14.32;;;11.48;;
53151;SDS011;39234;53.158;6.322;2023-05-10T00:50:45;17.38;;;11.85;;
53151;SDS011;39234;53.158;6.322;2023-05-10T00:53:12;16.65;;;12.38;;
53151;SDS011;39234;53.158;6.322;2023-05-10T00:55:38;17.23;;;10.75;;
53151;SDS011;39234;53.158;6.322;2023-05-10T00:58:04;16.42;;;11.68;;
53151;SDS011;39234;53.158;6.322;2023-05-10T01:00:30;17.58;;;12.82;;
53151;SDS011;39234;53.158;6.322;2023-05-10T01:02:58;14.30;;;11.48;;
53151;SDS011;39234;53.158;6.322;2023-05-10T01:05:24;14.75;;;11.02;;
53151;SDS011;39234;53.158;6.322;2023-05-10T01:07:52;11.57;;;9.30;;
53151;SDS011;39234;53.158;6.322;2023-05-10T01:10:17;13.13;;;8.93;;
53151;SDS011;39234;53.158;6.322;2023-05-10T01:12:44;11.80;;;9.45;;
53151;SDS011;39234;53.158;6.322;2023-05-10T01:15:11;12.88;;;10.13;;
53151;SDS011;39234;53.158;6.322;2023-05-10T01:17:39;12.57;;;9.77;;
53151;SDS011;39234;53.158;6.322;2023-05-10T01:20:07;12.07;;;9.82;;
53151;SDS011;39234;53.158;6.322;2023-05-10T01:25:26;9.48;;;8.40;;
53151;SDS011;39234;53.158;6.322;2023-05-10T01:36:18;10.70;;;9.30;;
53151;SDS011;39234;53.158;6.322;2023-05-10T01:38:59;12.82;;;9.75;;
53151;SDS011;39234;53.158;6.322;2023-05-10T01:41:46;10.45;;;9.15;;
53151;SDS011;39234;53.158;6.322;2023-05-10T01:46:42;11.68;;;9.43;;
53151;SDS011;39234;53.158;6.322;2023-05-10T01:49:09;10.98;;;9.32;;
53151;SDS011;39234;53.158;6.322;2023-05-10T01:51:47;11.40;;;9.80;;
53151;SDS011;39234;53.158;6.322;2023-05-10T01:54:17;12.15;;;10.18;;
53151;SDS011;39234;53.158;6.322;2023-05-10T01:56:45;13.85;;;10.73;;
53151;SDS011;39234;53.158;6.322;2023-05-10T01:59:18;13.15;;;10.88;;
53151;SDS011;39234;53.158;6.322;2023-05-10T02:01:45;12.45;;;10.52;;
53151;SDS011;39234;53.158;6.322;2023-05-10T02:04:14;11.68;;;10.20;;
53151;SDS011;39234;53.158;6.322;2023-05-10T02:06:42;15.45;;;12.93;;
53151;SDS011;39234;53.158;6.322;2023-05-10T02:09:09;14.30;;;12.43;;
53151;SDS011;39234;53.158;6.322;2023-05-10T02:11:39;17.95;;;12.40;;
53151;SDS011;39234;53.158;6.322;2023-05-10T02:14:08;14.13;;;11.35;;
53151;SDS011;39234;53.158;6.322;2023-05-10T02:16:36;18.13;;;13.38;;
53151;SDS011;39234;53.158;6.322;2023-05-10T02:19:04;16.00;;;13.32;;
53151;SDS011;39234;53.158;6.322;2023-05-10T02:21:31;14.77;;;12.75;;
53151;SDS011;39234;53.158;6.322;2023-05-10T02:23:59;14.93;;;12.38;;
53151;SDS011;39234;53.158;6.322;2023-05-10T02:26:25;15.75;;;12.82;;
53151;SDS011;39234;53.158;6.322;2023-05-10T02:28:51;18.30;;;14.73;;
53151;SDS011;39234;53.158;6.322;2023-05-10T02:31:19;15.48;;;13.40;;
53151;SDS011;39234;53.158;6.322;2023-05-10T02:33:46;19.80;;;15.35;;
53151;SDS011;39234;53.158;6.322;2023-05-10T02:36:14;20.73;;;14.68;;
53151;SDS011;39234;53.158;6.322;2023-05-10T02:38:41;18.20;;;14.98;;
53151;SDS011;39234;53.158;6.322;2023-05-10T02:41:08;18.10;;;15.00;;
53151;SDS011;39234;53.158;6.322;2023-05-10T02:43:36;19.92;;;15.98;;
53151;SDS011;39234;53.158;6.322;2023-05-10T02:46:05;19.98;;;16.05;;
53151;SDS011;39234;53.158;6.322;2023-05-10T02:48:30;24.88;;;18.23;;
53151;SDS011;39234;53.158;6.322;2023-05-10T02:50:59;23.48;;;17.35;;
53151;SDS011;39234;53.158;6.322;2023-05-10T02:53:33;23.65;;;17.45;;
53151;SDS011;39234;53.158;6.322;2023-05-10T02:56:01;25.75;;;19.20;;
53151;SDS011;39234;53.158;6.322;2023-05-10T02:58:32;25.88;;;18.17;;
53151;SDS011;39234;53.158;6.322;2023-05-10T03:00:59;28.35;;;20.27;;
53151;SDS011;39234;53.158;6.322;2023-05-10T03:03:25;31.45;;;20.73;;
53151;SDS011;39234;53.158;6.322;2023-05-10T03:05:51;33.22;;;21.63;;
53151;SDS011;39234;53.158;6.322;2023-05-10T03:08:20;28.02;;;19.23;;
53151;SDS011;39234;53.158;6.322;2023-05-10T03:10:55;30.50;;;20.05;;
53151;SDS011;39234;53.158;6.322;2023-05-10T03:13:44;33.20;;;20.35;;
53151;SDS011;39234;53.158;6.322;2023-05-10T03:16:34;40.42;;;21.15;;
53151;SDS011;39234;53.158;6.322;2023-05-10T03:19:30;35.20;;;20.10;;
53151;SDS011;39234;53.158;6.322;2023-05-10T03:22:08;37.00;;;19.95;;
53151;SDS011;39234;53.158;6.322;2023-05-10T03:24:36;45.47;;;21.80;;
53151;SDS011;39234;53.158;6.322;2023-05-10T03:27:04;32.70;;;18.60;;
53151;SDS011;39234;53.158;6.322;2023-05-10T03:29:32;36.47;;;20.00;;
53151;SDS011;39234;53.158;6.322;2023-05-10T03:31:58;43.03;;;22.50;;
53151;SDS011;39234;53.158;6.322;2023-05-10T03:34:25;42.40;;;20.95;;
53151;SDS011;39234;53.158;6.322;2023-05-10T03:36:51;35.58;;;19.45;;
53151;SDS011;39234;53.158;6.322;2023-05-10T03:39:17;27.90;;;17.50;;
53151;SDS011;39234;53.158;6.322;2023-05-10T03:41:43;38.10;;;20.42;;
53151;SDS011;39234;53.158;6.322;2023-05-10T03:44:08;37.17;;;19.90;;
53151;SDS011;39234;53.158;6.322;2023-05-10T03:46:34;33.10;;;18.98;;
53151;SDS011;39234;53.158;6.322;2023-05-10T03:49:00;35.85;;;18.70;;
53151;SDS011;39234;53.158;6.322;2023-05-10T03:51:25;34.85;;;19.08;;
53151;SDS011;39234;53.158;6.322;2023-05-10T03:53:53;30.00;;;18.08;;
53151;SDS011;39234;53.158;6.322;2023-05-10T03:56:20;30.63;;;18.02;;
53151;SDS011;39234;53.158;6.322;2023-05-10T03:58:46;22.55;;;15.85;;
53151;SDS011;39234;53.158;6.322;2023-05-10T04:01:12;29.63;;;17.30;;
53151;SDS011;39234;53.158;6.322;2023-05-10T04:03:38;26.52;;;17.15;;
53151;SDS011;39234;53.158;6.322;2023-05-10T04:06:04;25.02;;;13.95;;
53151;SDS011;39234;53.158;6.322;2023-05-10T04:08:30;16.77;;;12.02;;
53151;SDS011;39234;53.158;6.322;2023-05-10T04:11:09;16.17;;;10.80;;
53151;SDS011;39234;53.158;6.322;2023-05-10T04:13:37;11.77;;;8.55;;
53151;SDS011;39234;53.158;6.322;2023-05-10T04:16:03;9.82;;;6.93;;
53151;SDS011;39234;53.158;6.322;2023-05-10T04:18:30;8.07;;;5.82;;
53151;SDS011;39234;53.158;6.322;2023-05-10T04:20:56;6.30;;;4.40;;
53151;SDS011;39234;53.158;6.322;2023-05-10T04:23:22;7.88;;;4.95;;
53151;SDS011;39234;53.158;6.322;2023-05-10T04:25:48;6.43;;;4.55;;
53151;SDS011;39234;53.158;6.322;2023-05-10T04:28:14;7.93;;;4.88;;
53151;SDS011;39234;53.158;6.322;2023-05-10T04:30:39;7.88;;;4.65;;
53151;SDS011;39234;53.158;6.322;2023-05-10T04:33:05;7.10;;;4.57;;
53151;SDS011;39234;53.158;6.322;2023-05-10T04:35:31;6.43;;;4.57;;
53151;SDS011;39234;53.158;6.322;2023-05-10T04:37:57;9.95;;;5.43;;
53151;SDS011;39234;53.158;6.322;2023-05-10T04:40:22;8.98;;;5.25;;
53151;SDS011;39234;53.158;6.322;2023-05-10T04:42:48;10.52;;;5.93;;
53151;SDS011;39234;53.158;6.322;2023-05-10T04:45:14;13.07;;;6.97;;
53151;SDS011;39234;53.158;6.322;2023-05-10T04:47:40;12.38;;;6.90;;
53151;SDS011;39234;53.158;6.322;2023-05-10T04:50:06;16.42;;;7.60;;
53151;SDS011;39234;53.158;6.322;2023-05-10T04:52:33;14.68;;;7.43;;
53151;SDS011;39234;53.158;6.322;2023-05-10T04:54:58;14.63;;;8.65;;
53151;SDS011;39234;53.158;6.322;2023-05-10T04:57:24;12.73;;;7.40;;
53151;SDS011;39234;53.158;6.322;2023-05-10T04:59:50;19.40;;;9.13;;
53151;SDS011;39234;53.158;6.322;2023-05-10T05:02:16;15.40;;;8.52;;
53151;SDS011;39234;53.158;6.322;2023-05-10T05:04:41;16.30;;;9.48;;
53151;SDS011;39234;53.158;6.322;2023-05-10T05:07:07;16.98;;;8.95;;
53151;SDS011;39234;53.158;6.322;2023-05-10T05:09:33;16.33;;;8.32;;
53151;SDS011;39234;53.158;6.322;2023-05-10T05:11:59;13.57;;;8.63;;
53151;SDS011;39234;53.158;6.322;2023-05-10T05:14:25;15.73;;;8.82;;
53151;SDS011;39234;53.158;6.322;2023-05-10T05:16:51;15.80;;;8.93;;
53151;SDS011;39234;53.158;6.322;2023-05-10T05:19:17;15.18;;;8.95;;
53151;SDS011;39234;53.158;6.322;2023-05-10T05:21:43;12.65;;;8.77;;
53151;SDS011;39234;53.158;6.322;2023-05-10T05:24:08;12.75;;;8.43;;
53151;SDS011;39234;53.158;6.322;2023-05-10T05:26:35;13.38;;;8.90;;
53151;SDS011;39234;53.158;6.322;2023-05-10T05:29:01;15.57;;;9.82;;
53151;SDS011;39234;53.158;6.322;2023-05-10T05:31:28;14.13;;;9.82;;
53151;SDS011;39234;53.158;6.322;2023-05-10T05:33:53;13.85;;;8.60;;
53151;SDS011;39234;53.158;6.322;2023-05-10T05:36:20;11.38;;;8.20;;
53151;SDS011;39234;53.158;6.322;2023-05-10T05:38:46;11.02;;;8.07;;
53151;SDS011;39234;53.158;6.322;2023-05-10T05:41:12;14.52;;;9.40;;
53151;SDS011;39234;53.158;6.322;2023-05-10T05:43:37;20.73;;;10.93;;
53151;SDS011;39234;53.158;6.322;2023-05-10T05:46:03;17.23;;;10.45;;
53151;SDS011;39234;53.158;6.322;2023-05-10T05:48:29;26.88;;;12.65;;
53151;SDS011;39234;53.158;6.322;2023-05-10T05:50:55;27.60;;;14.07;;
53151;SDS011;39234;53.158;6.322;2023-05-10T05:53:21;28.13;;;14.65;;
53151;SDS011;39234;53.158;6.322;2023-05-10T05:55:55;27.85;;;14.98;;
53151;SDS011;39234;53.158;6.322;2023-05-10T05:58:22;28.85;;;16.30;;
53151;SDS011;39234;53.158;6.322;2023-05-10T06:00:48;28.98;;;15.70;;
53151;SDS011;39234;53.158;6.322;2023-05-10T06:03:14;22.77;;;14.27;;
53151;SDS011;39234;53.158;6.322;2023-05-10T06:05:39;18.70;;;12.00;;
53151;SDS011;39234;53.158;6.322;2023-05-10T06:08:05;15.20;;;10.80;;
53151;SDS011;39234;53.158;6.322;2023-05-10T06:10:31;15.90;;;9.05;;
53151;SDS011;39234;53.158;6.322;2023-05-10T06:12:56;12.88;;;7.95;;
53151;SDS011;39234;53.158;6.322;2023-05-10T06:15:22;13.18;;;9.02;;
53151;SDS011;39234;53.158;6.322;2023-05-10T06:17:48;11.05;;;7.35;;
53151;SDS011;39234;53.158;6.322;2023-05-10T06:20:16;10.77;;;6.50;;
53151;SDS011;39234;53.158;6.322;2023-05-10T06:22:42;9.75;;;6.32;;
53151;SDS011;39234;53.158;6.322;2023-05-10T06:25:08;6.60;;;4.43;;
53151;SDS011;39234;53.158;6.322;2023-05-10T06:27:34;6.72;;;3.65;;
53151;SDS011;39234;53.158;6.322;2023-05-10T06:30:00;5.43;;;2.95;;
53151;SDS011;39234;53.158;6.322;2023-05-10T06:32:27;3.95;;;2.13;;
53151;SDS011;39234;53.158;6.322;2023-05-10T06:34:53;2.95;;;1.85;;
53151;SDS011;39234;53.158;6.322;2023-05-10T06:37:19;2.60;;;1.70;;
53151;SDS011;39234;53.158;6.322;2023-05-10T06:39:45;2.78;;;1.70;;
53151;SDS011;39234;53.158;6.322;2023-05-10T06:42:10;4.03;;;1.30;;
53151;SDS011;39234;53.158;6.322;2023-05-10T06:44:36;3.42;;;1.48;;
53151;SDS011;39234;53.158;6.322;2023-05-10T06:47:02;3.35;;;1.65;;
53151;SDS011;39234;53.158;6.322;2023-05-10T06:49:28;2.78;;;1.60;;
53151;SDS011;39234;53.158;6.322;2023-05-10T06:51:55;3.97;;;1.70;;
53151;SDS011;39234;53.158;6.322;2023-05-10T06:54:21;4.55;;;1.92;;
53151;SDS011;39234;53.158;6.322;2023-05-10T06:56:46;4.10;;;2.17;;
53151;SDS011;39234;53.158;6.322;2023-05-10T06:59:12;3.58;;;2.35;;
53151;SDS011;39234;53.158;6.322;2023-05-10T07:01:38;4.47;;;2.47;;
53151;SDS011;39234;53.158;6.322;2023-05-10T07:04:04;4.07;;;2.60;;
53151;SDS011;39234;53.158;6.322;2023-05-10T07:06:30;4.45;;;2.72;;
53151;SDS011;39234;53.158;6.322;2023-05-10T07:08:56;5.95;;;3.50;;
53151;SDS011;39234;53.158;6.322;2023-05-10T07:11:22;6.35;;;3.53;;
53151;SDS011;39234;53.158;6.322;2023-05-10T07:13:47;5.25;;;3.55;;
53151;SDS011;39234;53.158;6.322;2023-05-10T07:16:13;4.95;;;3.92;;
53151;SDS011;39234;53.158;6.322;2023-05-10T07:18:39;4.85;;;3.65;;
53151;SDS011;39234;53.158;6.322;2023-05-10T07:21:04;6.03;;;4.10;;
53151;SDS011;39234;53.158;6.322;2023-05-10T07:23:30;6.40;;;4.35;;
53151;SDS011;39234;53.158;6.322;2023-05-10T07:25:56;6.07;;;4.75;;
53151;SDS011;39234;53.158;6.322;2023-05-10T07:28:22;6.32;;;4.45;;
53151;SDS011;39234;53.158;6.322;2023-05-10T07:30:49;5.68;;;3.63;;
53151;SDS011;39234;53.158;6.322;2023-05-10T07:33:15;5.03;;;4.03;;
53151;SDS011;39234;53.158;6.322;2023-05-10T07:35:41;6.25;;;4.50;;
53151;SDS011;39234;53.158;6.322;2023-05-10T07:38:07;7.38;;;4.97;;
53151;SDS011;39234;53.158;6.322;2023-05-10T07:40:33;10.65;;;4.72;;
53151;SDS011;39234;53.158;6.322;2023-05-10T07:42:59;14.02;;;6.68;;
53151;SDS011;39234;53.158;6.322;2023-05-10T07:45:26;7.45;;;5.15;;
53151;SDS011;39234;53.158;6.322;2023-05-10T07:47:52;5.82;;;4.53;;
53151;SDS011;39234;53.158;6.322;2023-05-10T07:50:18;6.00;;;4.57;;
53151;SDS011;39234;53.158;6.322;2023-05-10T07:52:44;9.05;;;5.05;;
53151;SDS011;39234;53.158;6.322;2023-05-10T07:55:10;7.00;;;4.70;;
53151;SDS011;39234;53.158;6.322;2023-05-10T07:57:36;6.80;;;5.15;;
53151;SDS011;39234;53.158;6.322;2023-05-10T08:00:02;8.82;;;5.05;;
53151;SDS011;39234;53.158;6.322;2023-05-10T08:02:28;5.63;;;4.35;;
53151;SDS011;39234;53.158;6.322;2023-05-10T08:04:54;7.15;;;5.00;;
53151;SDS011;39234;53.158;6.322;2023-05-10T08:07:21;6.00;;;3.92;;
53151;SDS011;39234;53.158;6.322;2023-05-10T08:09:46;8.15;;;4.32;;
53151;SDS011;39234;53.158;6.322;2023-05-10T08:12:12;10.82;;;4.35;;
53151;SDS011;39234;53.158;6.322;2023-05-10T08:14:38;7.13;;;4.63;;
53151;SDS011;39234;53.158;6.322;2023-05-10T08:17:03;6.40;;;4.53;;
53151;SDS011;39234;53.158;6.322;2023-05-10T08:19:29;8.15;;;4.60;;
53151;SDS011;39234;53.158;6.322;2023-05-10T08:21:55;7.78;;;4.85;;
53151;SDS011;39234;53.158;6.322;2023-05-10T08:24:21;8.35;;;5.38;;
53151;SDS011;39234;53.158;6.322;2023-05-10T08:26:47;9.15;;;5.28;;
53151;SDS011;39234;53.158;6.322;2023-05-10T08:29:13;9.40;;;4.68;;
53151;SDS011;39234;53.158;6.322;2023-05-10T08:31:40;6.57;;;4.57;;
53151;SDS011;39234;53.158;6.322;2023-05-10T08:34:06;7.78;;;5.03;;
53151;SDS011;39234;53.158;6.322;2023-05-10T08:36:32;7.15;;;5.47;;
53151;SDS011;39234;53.158;6.322;2023-05-10T08:38:58;10.68;;;6.47;;
53151;SDS011;39234;53.158;6.322;2023-05-10T08:41:24;9.00;;;6.20;;
53151;SDS011;39234;53.158;6.322;2023-05-10T08:43:53;9.30;;;7.40;;
53151;SDS011;39234;53.158;6.322;2023-05-10T08:46:20;12.13;;;6.30;;
53151;SDS011;39234;53.158;6.322;2023-05-10T08:48:48;11.93;;;6.40;;
53151;SDS011;39234;53.158;6.322;2023-05-10T08:51:18;12.05;;;6.53;;
53151;SDS011;39234;53.158;6.322;2023-05-10T08:53:46;10.88;;;5.78;;
53151;SDS011;39234;53.158;6.322;2023-05-10T08:56:13;10.82;;;4.60;;
53151;SDS011;39234;53.158;6.322;2023-05-10T08:58:40;9.00;;;4.75;;
53151;SDS011;39234;53.158;6.322;2023-05-10T09:01:06;7.95;;;4.60;;
53151;SDS011;39234;53.158;6.322;2023-05-10T09:03:33;7.93;;;4.60;;
53151;SDS011;39234;53.158;6.322;2023-05-10T09:06:00;8.45;;;5.20;;
53151;SDS011;39234;53.158;6.322;2023-05-10T09:08:26;8.75;;;5.40;;
53151;SDS011;39234;53.158;6.322;2023-05-10T09:10:53;9.07;;;5.85;;
53151;SDS011;39234;53.158;6.322;2023-05-10T09:13:21;7.75;;;5.40;;
53151;SDS011;39234;53.158;6.322;2023-05-10T09:15:48;9.77;;;6.18;;
53151;SDS011;39234;53.158;6.322;2023-05-10T09:18:15;11.52;;;5.53;;
53151;SDS011;39234;53.158;6.322;2023-05-10T09:20:41;10.18;;;6.05;;
53151;SDS011;39234;53.158;6.322;2023-05-10T09:23:07;7.75;;;5.07;;
53151;SDS011;39234;53.158;6.322;2023-05-10T09:25:33;8.52;;;4.80;;
53151;SDS011;39234;53.158;6.322;2023-05-10T09:27:59;8.60;;;5.28;;
53151;SDS011;39234;53.158;6.322;2023-05-10T09:30:26;9.85;;;5.45;;
53151;SDS011;39234;53.158;6.322;2023-05-10T09:32:56;8.80;;;5.43;;
53151;SDS011;39234;53.158;6.322;2023-05-10T09:35:23;9.38;;;5.22;;
53151;SDS011;39234;53.158;6.322;2023-05-10T09:37:51;8.02;;;5.38;;
53151;SDS011;39234;53.158;6.322;2023-05-10T09:40:20;7.57;;;5.30;;
53151;SDS011;39234;53.158;6.322;2023-05-10T09:42:51;8.05;;;4.88;;
53151;SDS011;39234;53.158;6.322;2023-05-10T09:45:22;7.35;;;4.65;;
53151;SDS011;39234;53.158;6.322;2023-05-10T09:47:48;12.32;;;5.43;;
53151;SDS011;39234;53.158;6.322;2023-05-10T09:50:14;7.00;;;5.10;;
53151;SDS011;39234;53.158;6.322;2023-05-10T09:52:53;7.03;;;4.05;;
53151;SDS011;39234;53.158;6.322;2023-05-10T09:55:47;6.25;;;3.80;;
53151;SDS011;39234;53.158;6.322;2023-05-10T09:58:14;7.85;;;4.45;;
53151;SDS011;39234;53.158;6.322;2023-05-10T10:00:41;8.75;;;4.05;;
53151;SDS011;39234;53.158;6.322;2023-05-10T10:03:12;7.07;;;4.03;;
53151;SDS011;39234;53.158;6.322;2023-05-10T10:05:40;6.88;;;4.20;;
53151;SDS011;39234;53.158;6.322;2023-05-10T10:08:08;8.05;;;4.80;;
53151;SDS011;39234;53.158;6.322;2023-05-10T10:10:34;14.63;;;5.03;;
53151;SDS011;39234;53.158;6.322;2023-05-10T10:13:00;7.13;;;4.50;;
53151;SDS011;39234;53.158;6.322;2023-05-10T10:15:27;17.13;;;6.10;;
53151;SDS011;39234;53.158;6.322;2023-05-10T10:17:52;10.88;;;5.00;;
53151;SDS011;39234;53.158;6.322;2023-05-10T10:20:19;9.18;;;5.03;;
53151;SDS011;39234;53.158;6.322;2023-05-10T10:22:47;12.32;;;5.22;;
53151;SDS011;39234;53.158;6.322;2023-05-10T10:25:14;10.23;;;4.93;;
53151;SDS011;39234;53.158;6.322;2023-05-10T10:27:47;9.07;;;4.90;;
53151;SDS011;39234;53.158;6.322;2023-05-10T10:35:58;8.10;;;4.65;;
53151;SDS011;39234;53.158;6.322;2023-05-10T10:38:35;8.02;;;5.07;;
53151;SDS011;39234;53.158;6.322;2023-05-10T10:41:10;8.43;;;5.90;;
53151;SDS011;39234;53.158;6.322;2023-05-10T10:43:37;8.35;;;4.97;;
53151;SDS011;39234;53.158;6.322;2023-05-10T10:46:15;8.65;;;5.22;;
53151;SDS011;39234;53.158;6.322;2023-05-10T10:48:48;8.93;;;5.32;;
53151;SDS011;39234;53.158;6.322;2023-05-10T10:51:16;9.50;;;5.90;;
53151;SDS011;39234;53.158;6.322;2023-05-10T10:53:42;8.90;;;5.05;;
53151;SDS011;39234;53.158;6.322;2023-05-10T10:56:09;9.40;;;5.97;;
53151;SDS011;39234;53.158;6.322;2023-05-10T10:58:37;8.70;;;5.80;;
53151;SDS011;39234;53.158;6.322;2023-05-10T11:01:16;8.18;;;5.93;;
53151;SDS011;39234;53.158;6.322;2023-05-10T11:06:30;8.82;;;6.63;;
53151;SDS011;39234;53.158;6.322;2023-05-10T11:08:57;10.68;;;7.47;;
53151;SDS011;39234;53.158;6.322;2023-05-10T11:11:23;11.65;;;6.38;;
53151;SDS011;39234;53.158;6.322;2023-05-10T11:13:49;9.00;;;7.05;;
53151;SDS011;39234;53.158;6.322;2023-05-10T11:18:54;16.67;;;8.15;;
53151;SDS011;39234;53.158;6.322;2023-05-10T11:21:23;13.23;;;8.32;;
53151;SDS011;39234;53.158;6.322;2023-05-10T11:23:50;10.77;;;7.53;;
53151;SDS011;39234;53.158;6.322;2023-05-10T11:26:24;17.13;;;8.18;;
53151;SDS011;39234;53.158;6.322;2023-05-10T11:28:51;12.43;;;8.43;;
53151;SDS011;39234;53.158;6.322;2023-05-10T11:31:22;13.70;;;7.85;;
53151;SDS011;39234;53.158;6.322;2023-05-10T11:33:52;15.00;;;8.15;;
53151;SDS011;39234;53.158;6.322;2023-05-10T11:36:20;16.37;;;7.73;;
53151;SDS011;39234;53.158;6.322;2023-05-10T11:38:48;11.70;;;7.28;;
53151;SDS011;39234;53.158;6.322;2023-05-10T11:41:15;12.85;;;8.40;;
53151;SDS011;39234;53.158;6.322;2023-05-10T11:43:43;11.30;;;7.97;;
53151;SDS011;39234;53.158;6.322;2023-05-10T11:46:13;10.30;;;6.90;;
53151;SDS011;39234;53.158;6.322;2023-05-10T11:48:39;9.40;;;6.63;;
53151;SDS011;39234;53.158;6.322;2023-05-10T11:51:08;9.93;;;6.75;;
53151;SDS011;39234;53.158;6.322;2023-05-10T11:53:35;9.80;;;6.65;;
53151;SDS011;39234;53.158;6.322;2023-05-10T11:56:05;9.75;;;6.68;;
53151;SDS011;39234;53.158;6.322;2023-05-10T11:58:35;14.32;;;7.10;;
53151;SDS011;39234;53.158;6.322;2023-05-10T12:01:02;15.50;;;7.82;;
53151;SDS011;39234;53.158;6.322;2023-05-10T12:03:29;11.82;;;5.25;;
53151;SDS011;39234;53.158;6.322;2023-05-10T12:05:55;9.15;;;5.28;;
53151;SDS011;39234;53.158;6.322;2023-05-10T12:08:23;10.90;;;5.65;;
53151;SDS011;39234;53.158;6.322;2023-05-10T12:10:54;11.00;;;6.03;;
53151;SDS011;39234;53.158;6.322;2023-05-10T12:13:37;8.98;;;5.80;;
53151;SDS011;39234;53.158;6.322;2023-05-10T12:21:04;13.55;;;7.57;;
53151;SDS011;39234;53.158;6.322;2023-05-10T12:23:30;10.90;;;6.55;;
53151;SDS011;39234;53.158;6.322;2023-05-10T12:26:01;10.13;;;6.00;;
53151;SDS011;39234;53.158;6.322;2023-05-10T12:28:29;9.77;;;5.82;;
53151;SDS011;39234;53.158;6.322;2023-05-10T12:30:56;9.43;;;5.80;;
53151;SDS011;39234;53.158;6.322;2023-05-10T12:33:23;10.68;;;6.28;;
53151;SDS011;39234;53.158;6.322;2023-05-10T12:35:50;9.85;;;6.30;;
53151;SDS011;39234;53.158;6.322;2023-05-10T12:38:32;8.20;;;5.43;;
53151;SDS011;39234;53.158;6.322;2023-05-10T12:41:00;7.70;;;5.78;;
53151;SDS011;39234;53.158;6.322;2023-05-10T12:43:27;9.20;;;5.75;;
53151;SDS011;39234;53.158;6.322;2023-05-10T12:45:53;11.38;;;5.47;;
53151;SDS011;39234;53.158;6.322;2023-05-10T12:48:19;9.45;;;6.35;;
53151;SDS011;39234;53.158;6.322;2023-05-10T12:50:45;10.02;;;6.78;;
53151;SDS011;39234;53.158;6.322;2023-05-10T12:53:12;8.88;;;5.75;;
53151;SDS011;39234;53.158;6.322;2023-05-10T12:55:44;9.32;;;6.03;;
53151;SDS011;39234;53.158;6.322;2023-05-10T12:58:10;8.45;;;6.05;;
53151;SDS011;39234;53.158;6.322;2023-05-10T13:00:36;10.27;;;5.85;;
53151;SDS011;39234;53.158;6.322;2023-05-10T13:03:03;9.95;;;5.80;;
53151;SDS011;39234;53.158;6.322;2023-05-10T13:05:31;9.20;;;5.85;;
53151;SDS011;39234;53.158;6.322;2023-05-10T13:07:57;10.65;;;5.60;;
53151;SDS011;39234;53.158;6.322;2023-05-10T13:10:24;14.52;;;6.00;;
53151;SDS011;39234;53.158;6.322;2023-05-10T13:12:50;8.93;;;5.43;;
53151;SDS011;39234;53.158;6.322;2023-05-10T13:15:16;9.52;;;5.20;;
53151;SDS011;39234;53.158;6.322;2023-05-10T13:17:42;8.43;;;5.40;;
53151;SDS011;39234;53.158;6.322;2023-05-10T13:20:08;10.27;;;6.22;;
53151;SDS011;39234;53.158;6.322;2023-05-10T13:22:34;8.68;;;5.55;;
53151;SDS011;39234;53.158;6.322;2023-05-10T13:25:01;10.65;;;6.55;;
53151;SDS011;39234;53.158;6.322;2023-05-10T13:27:27;9.50;;;6.05;;
53151;SDS011;39234;53.158;6.322;2023-05-10T13:29:53;9.65;;;6.15;;
53151;SDS011;39234;53.158;6.322;2023-05-10T13:32:19;10.00;;;6.50;;
53151;SDS011;39234;53.158;6.322;2023-05-10T13:34:45;8.95;;;6.07;;
53151;SDS011;39234;53.158;6.322;2023-05-10T13:37:11;7.70;;;6.43;;
53151;SDS011;39234;53.158;6.322;2023-05-10T13:39:37;7.55;;;5.95;;
53151;SDS011;39234;53.158;6.322;2023-05-10T13:42:03;10.02;;;5.72;;
53151;SDS011;39234;53.158;6.322;2023-05-10T13:44:29;7.97;;;6.00;;
53151;SDS011;39234;53.158;6.322;2023-05-10T13:46:56;10.40;;;5.80;;
53151;SDS011;39234;53.158;6.322;2023-05-10T13:49:21;9.23;;;6.45;;
53151;SDS011;39234;53.158;6.322;2023-05-10T13:51:47;8.45;;;5.90;;
53151;SDS011;39234;53.158;6.322;2023-05-10T13:54:13;11.05;;;5.95;;
53151;SDS011;39234;53.158;6.322;2023-05-10T13:56:39;9.45;;;6.78;;
53151;SDS011;39234;53.158;6.322;2023-05-10T13:59:06;10.73;;;6.13;;
53151;SDS011;39234;53.158;6.322;2023-05-10T14:01:32;10.35;;;6.05;;
53151;SDS011;39234;53.158;6.322;2023-05-10T14:03:59;9.18;;;6.50;;
53151;SDS011;39234;53.158;6.322;2023-05-10T14:06:24;10.80;;;7.28;;
53151;SDS011;39234;53.158;6.322;2023-05-10T14:08:52;10.25;;;7.15;;
53151;SDS011;39234;53.158;6.322;2023-05-10T14:11:18;10.20;;;7.40;;
53151;SDS011;39234;53.158;6.322;2023-05-10T14:13:44;9.77;;;6.93;;
53151;SDS011;39234;53.158;6.322;2023-05-10T14:16:10;10.18;;;7.40;;
53151;SDS011;39234;53.158;6.322;2023-05-10T14:18:36;10.40;;;7.93;;
53151;SDS011;39234;53.158;6.322;2023-05-10T14:21:03;10.25;;;7.60;;
53151;SDS011;39234;53.158;6.322;2023-05-10T14:23:29;10.85;;;8.27;;
53151;SDS011;39234;53.158;6.322;2023-05-10T14:25:55;10.65;;;7.93;;
53151;SDS011;39234;53.158;6.322;2023-05-10T14:28:21;10.05;;;7.22;;
53151;SDS011;39234;53.158;6.322;2023-05-10T14:30:48;12.15;;;7.20;;
53151;SDS011;39234;53.158;6.322;2023-05-10T14:33:15;9.82;;;7.78;;
53151;SDS011;39234;53.158;6.322;2023-05-10T14:35:42;8.88;;;6.63;;
53151;SDS011;39234;53.158;6.322;2023-05-10T14:38:07;10.55;;;6.82;;
53151;SDS011;39234;53.158;6.322;2023-05-10T14:40:33;9.98;;;7.68;;
53151;SDS011;39234;53.158;6.322;2023-05-10T14:42:59;9.88;;;7.00;;
53151;SDS011;39234;53.158;6.322;2023-05-10T14:45:25;10.93;;;7.57;;
53151;SDS011;39234;53.158;6.322;2023-05-10T14:47:51;10.40;;;7.18;;
53151;SDS011;39234;53.158;6.322;2023-05-10T14:50:17;10.57;;;6.93;;
53151;SDS011;39234;53.158;6.322;2023-05-10T14:52:43;8.68;;;6.35;;
53151;SDS011;39234;53.158;6.322;2023-05-10T14:55:09;11.77;;;7.55;;
53151;SDS011;39234;53.158;6.322;2023-05-10T14:57:35;10.43;;;7.00;;
53151;SDS011;39234;53.158;6.322;2023-05-10T15:00:01;10.13;;;6.90;;
53151;SDS011;39234;53.158;6.322;2023-05-10T15:02:28;11.13;;;8.68;;
53151;SDS011;39234;53.158;6.322;2023-05-10T15:04:55;12.48;;;7.07;;
53151;SDS011;39234;53.158;6.322;2023-05-10T15:07:22;11.07;;;7.55;;